Time;durP1;ratioP1;P1;durP2;ratioP2;P2;SDS_P1;SDS_P2;PMS_P1;PMS_P2;Temp;Humidity;BMP_temperature;BMP_pressure;BME280_temperature;BME280_humidity;BME280_pressure;Samples;Min_cycle;Max_cycle;Signal;HPM_P1;HPM_P2
2021/08/16 00:02:00;;;;;;;8.20;2.63;;;31.70;43.90;;;;;;4956117;29;20456;-49
2021/08/16 00:04:26;;;;;;;3.80;2.40;;;31.70;43.90;;;;;;4955501;29;20117;-46
2021/08/16 00:06:51;;;;;;;5.15;2.22;;;31.70;43.90;;;;;;4955347;29;20117;-42
2021/08/16 00:09:17;;;;;;;5.95;2.05;;;31.70;43.80;;;;;;4954663;29;20023;-49
2021/08/16 00:11:43;;;;;;;3.80;2.35;;;31.70;43.70;;;;;;4954855;29;20035;-45
2021/08/16 00:14:08;;;;;;;4.45;2.25;;;31.70;43.60;;;;;;4955593;29;20031;-43
2021/08/16 00:16:34;;;;;;;4.10;2.70;;;31.70;43.60;;;;;;4956309;29;20058;-47
2021/08/16 00:19:01;;;;;;;3.38;1.90;;;31.70;43.70;;;;;;4955944;29;20034;-46
2021/08/16 00:21:26;;;;;;;5.28;2.25;;;31.70;43.70;;;;;;4956220;29;20094;-46
2021/08/16 00:23:52;;;;;;;4.32;2.17;;;31.60;43.70;;;;;;4956086;29;20035;-44
2021/08/16 00:26:18;;;;;;;4.50;2.40;;;31.70;43.80;;;;;;4955481;29;20031;-46
2021/08/16 00:28:44;;;;;;;6.10;2.25;;;31.70;43.80;;;;;;4956172;29;20520;-46
2021/08/16 00:31:10;;;;;;;4.45;2.20;;;31.60;43.80;;;;;;4954319;29;20023;-46
2021/08/16 00:33:36;;;;;;;4.80;2.53;;;31.70;43.80;;;;;;4954867;29;20035;-46
2021/08/16 00:36:02;;;;;;;5.40;2.45;;;31.70;43.90;;;;;;4955027;28;20043;-46
2021/08/16 00:38:27;;;;;;;3.75;2.30;;;31.70;43.90;;;;;;4955996;29;20032;-45
2021/08/16 00:40:54;;;;;;;2.83;1.90;;;31.60;43.80;;;;;;4955691;29;20027;-46
2021/08/16 00:43:19;;;;;;;4.05;2.00;;;31.70;44.00;;;;;;4938164;29;20039;-48
2021/08/16 00:45:46;;;;;;;5.85;2.15;;;31.70;43.90;;;;;;4955709;29;20027;-45
2021/08/16 00:48:12;;;;;;;4.40;2.25;;;31.70;43.90;;;;;;4955258;29;20035;-49
2021/08/16 00:50:38;;;;;;;6.03;2.47;;;31.70;43.90;;;;;;4955584;29;20027;-44
2021/08/16 00:53:05;;;;;;;6.10;2.20;;;31.70;43.90;;;;;;4955099;29;20456;-44
2021/08/16 00:55:31;;;;;;;3.75;2.20;;;31.70;44.50;;;;;;4955373;29;20468;-48
2021/08/16 00:58:00;;;;;;;3.50;2.33;;;31.70;43.90;;;;;;4955431;29;20037;-43
2021/08/16 01:00:26;;;;;;;4.07;2.10;;;31.70;43.90;;;;;;4938050;29;20030;-45
2021/08/16 01:02:52;;;;;;;3.95;2.10;;;31.70;43.90;;;;;;4954476;29;20031;-47
2021/08/16 01:05:19;;;;;;;3.90;2.20;;;31.60;43.90;;;;;;4955000;29;20062;-45
2021/08/16 01:07:46;;;;;;;4.88;2.47;;;31.70;44.10;;;;;;4955408;29;20532;-48
2021/08/16 01:10:13;;;;;;;3.30;2.03;;;31.70;44.10;;;;;;4954983;29;20082;-44
2021/08/16 01:12:39;;;;;;;4.03;2.17;;;31.70;44.10;;;;;;4955312;29;20145;-43
2021/08/16 01:15:06;;;;;;;3.60;2.28;;;31.60;44.00;;;;;;4954816;29;20513;-43
2021/08/16 01:17:33;;;;;;;3.67;1.90;;;31.70;44.10;;;;;;4955143;29;20489;-45
2021/08/16 01:19:59;;;;;;;3.05;2.10;;;31.70;44.00;;;;;;4955061;29;20027;-46
2021/08/16 01:22:25;;;;;;;5.63;2.38;;;31.70;44.00;;;;;;4954704;29;20027;-44
2021/08/16 01:24:51;;;;;;;4.43;2.28;;;31.70;43.90;;;;;;4955259;29;20027;-47
2021/08/16 01:27:17;;;;;;;3.95;2.38;;;31.60;43.90;;;;;;4953038;29;20030;-44
2021/08/16 01:29:43;;;;;;;4.30;2.22;;;31.60;43.90;;;;;;4955217;29;20023;-43
2021/08/16 01:32:09;;;;;;;3.65;1.98;;;31.70;44.00;;;;;;4954555;29;20489;-46
2021/08/16 01:34:35;;;;;;;3.67;2.15;;;31.70;44.00;;;;;;4955012;29;20035;-45
2021/08/16 01:37:01;;;;;;;2.92;2.10;;;31.60;44.00;;;;;;4955182;29;20038;-44
2021/08/16 01:39:28;;;;;;;3.53;1.88;;;31.70;44.10;;;;;;4954715;29;20094;-45
2021/08/16 01:41:54;;;;;;;3.58;2.47;;;31.70;44.00;;;;;;4953709;29;20032;-44
2021/08/16 01:44:22;;;;;;;4.85;2.25;;;31.70;44.00;;;;;;4954435;29;20034;-47
2021/08/16 01:46:49;;;;;;;4.65;2.05;;;31.70;44.10;;;;;;4953100;28;20086;-47
2021/08/16 01:49:15;;;;;;;3.90;2.20;;;31.60;44.00;;;;;;4953563;29;20023;-44
2021/08/16 01:51:42;;;;;;;4.00;2.20;;;31.60;44.10;;;;;;4954974;29;20035;-43
2021/08/16 01:54:10;;;;;;;7.32;2.38;;;31.60;44.10;;;;;;4954051;29;20047;-47
2021/08/16 01:56:36;;;;;;;4.57;2.15;;;31.60;44.10;;;;;;4953333;29;20073;-49
2021/08/16 01:59:02;;;;;;;3.00;1.83;;;31.70;44.20;;;;;;4954739;29;20039;-46
2021/08/16 02:01:28;;;;;;;2.58;2.03;;;31.70;44.10;;;;;;4952771;29;20085;-49
2021/08/16 02:03:53;;;;;;;4.68;2.20;;;31.60;43.90;;;;;;4954716;29;20046;-47
2021/08/16 02:06:20;;;;;;;3.03;1.98;;;31.70;44.00;;;;;;4953836;29;20429;-47
2021/08/16 02:08:46;;;;;;;6.28;2.22;;;31.60;43.80;;;;;;4954388;29;20089;-45
2021/08/16 02:11:12;;;;;;;4.57;2.13;;;31.70;43.80;;;;;;4953772;29;20027;-44
2021/08/16 02:13:37;;;;;;;3.20;1.88;;;31.60;43.70;;;;;;4954501;29;20185;-43
2021/08/16 02:16:04;;;;;;;3.70;2.17;;;31.60;43.70;;;;;;4937168;29;20034;-47
2021/08/16 02:18:30;;;;;;;3.85;2.45;;;31.60;43.70;;;;;;4953775;29;20027;-47
2021/08/16 02:20:56;;;;;;;5.20;2.28;;;31.60;43.70;;;;;;4954075;29;20373;-47
2021/08/16 02:23:22;;;;;;;4.63;2.35;;;31.60;43.80;;;;;;4952450;29;20031;-50
2021/08/16 02:25:48;;;;;;;3.42;2.20;;;31.60;43.80;;;;;;4953857;29;20055;-47
2021/08/16 02:28:16;;;;;;;4.90;2.28;;;31.60;43.80;;;;;;4952382;29;20051;-48
2021/08/16 02:30:43;;;;;;;4.32;2.40;;;31.60;43.80;;;;;;4953610;29;20045;-47
2021/08/16 02:33:09;;;;;;;4.93;1.85;;;31.60;43.80;;;;;;4953493;29;20023;-46
2021/08/16 02:35:34;;;;;;;4.05;2.20;;;31.60;43.80;;;;;;4954056;29;20530;-48
2021/08/16 02:38:00;;;;;;;3.35;1.95;;;31.60;43.80;;;;;;4954154;29;20030;-42
2021/08/16 02:40:26;;;;;;;2.92;2.25;;;31.60;43.80;;;;;;4953217;29;20055;-45
2021/08/16 02:42:51;;;;;;;4.47;2.25;;;31.60;43.80;;;;;;4954007;29;20071;-47
2021/08/16 02:45:17;;;;;;;4.80;2.40;;;31.60;43.80;;;;;;4953552;29;20465;-45
2021/08/16 02:47:44;;;;;;;3.10;1.90;;;31.60;43.80;;;;;;4954181;29;20126;-47
2021/08/16 02:50:10;;;;;;;3.97;2.22;;;31.60;43.90;;;;;;4952945;29;20034;-48
2021/08/16 02:52:35;;;;;;;4.68;2.17;;;31.60;43.80;;;;;;4953493;29;20059;-46
2021/08/16 02:55:02;;;;;;;3.53;2.10;;;31.60;43.80;;;;;;4936859;29;20386;-42
2021/08/16 02:57:28;;;;;;;3.78;2.00;;;31.60;43.80;;;;;;4952094;29;20024;-45
2021/08/16 02:59:53;;;;;;;4.38;2.03;;;31.60;43.90;;;;;;4956312;28;20024;-46
2021/08/16 03:02:19;;;;;;;5.38;2.28;;;31.60;43.90;;;;;;4956788;29;20062;-43
2021/08/16 03:04:45;;;;;;;5.35;2.50;;;31.60;43.80;;;;;;4957474;29;20440;-45
2021/08/16 03:07:10;;;;;;;3.67;2.25;;;31.50;43.80;;;;;;4957120;29;20453;-51
2021/08/16 03:09:36;;;;;;;4.55;2.03;;;31.60;43.90;;;;;;4957431;29;20360;-47
2021/08/16 03:12:04;;;;;;;6.88;2.67;;;31.60;43.80;;;;;;4957260;29;20063;-43
2021/08/16 03:14:30;;;;;;;3.88;2.15;;;31.50;43.60;;;;;;4956868;29;20340;-49
2021/08/16 03:16:55;;;;;;;4.30;2.03;;;31.50;43.70;;;;;;4957497;29;20067;-46
2021/08/16 03:19:21;;;;;;;3.05;2.08;;;31.50;43.70;;;;;;4956690;29;20090;-45
2021/08/16 03:21:46;;;;;;;3.58;2.00;;;31.50;43.70;;;;;;4957444;29;20424;-44
2021/08/16 03:24:12;;;;;;;5.78;2.28;;;31.50;43.60;;;;;;4956836;29;20031;-46
2021/08/16 03:26:38;;;;;;;3.70;2.20;;;31.50;43.60;;;;;;4956136;29;20031;-48
2021/08/16 03:29:04;;;;;;;4.63;2.30;;;31.50;43.60;;;;;;4957355;29;20038;-47
2021/08/16 03:31:30;;;;;;;3.35;2.17;;;31.50;43.70;;;;;;4956683;29;20097;-48
2021/08/16 03:33:56;;;;;;;5.80;2.50;;;31.50;43.70;;;;;;4956696;29;20456;-44
2021/08/16 03:36:21;;;;;;;3.67;2.00;;;31.50;43.70;;;;;;4955308;29;20031;-48
2021/08/16 03:38:47;;;;;;;3.95;2.45;;;31.50;43.70;;;;;;4955779;29;20035;-44
2021/08/16 03:41:13;;;;;;;3.47;2.00;;;31.50;43.60;;;;;;4939182;29;20030;-50
2021/08/16 03:43:39;;;;;;;4.13;2.38;;;31.50;43.70;;;;;;4956665;29;20484;-48
2021/08/16 03:46:05;;;;;;;3.90;2.22;;;31.50;43.70;;;;;;4956975;29;20032;-47
2021/08/16 03:48:31;;;;;;;5.10;2.38;;;31.50;43.70;;;;;;4956112;29;20035;-49
2021/08/16 03:50:56;;;;;;;2.90;1.95;;;31.50;43.80;;;;;;4955654;29;20445;-46
2021/08/16 03:53:22;;;;;;;7.00;2.88;;;31.50;43.60;;;;;;4956213;29;20142;-47
2021/08/16 03:55:48;;;;;;;3.28;1.98;;;31.50;43.70;;;;;;4957086;29;20452;-44
2021/08/16 03:58:14;;;;;;;3.33;2.15;;;31.50;43.70;;;;;;4956150;29;20447;-54
2021/08/16 04:00:40;;;;;;;4.93;2.28;;;31.50;43.60;;;;;;4955500;29;20039;-48
2021/08/16 04:03:06;;;;;;;3.78;2.15;;;31.50;43.70;;;;;;4955120;29;20031;-48
2021/08/16 04:05:32;;;;;;;4.78;2.10;;;31.50;43.70;;;;;;4956067;29;20042;-47
2021/08/16 04:07:57;;;;;;;4.00;2.10;;;31.50;43.70;;;;;;4955353;29;20027;-49
2021/08/16 04:10:23;;;;;;;5.80;2.20;;;31.50;43.60;;;;;;4955149;28;20115;-48
2021/08/16 04:12:49;;;;;;;3.70;2.38;;;31.50;43.60;;;;;;4956563;29;20028;-45
2021/08/16 04:15:18;;;;;;;4.55;2.67;;;31.50;43.80;;;;;;4955995;29;20058;-54
2021/08/16 04:17:44;;;;;;;4.15;2.35;;;31.50;43.70;;;;;;4956095;29;20110;-47
2021/08/16 04:20:11;;;;;;;3.90;2.28;;;31.50;43.70;;;;;;4955208;29;20028;-47
2021/08/16 04:22:37;;;;;;;3.38;2.05;;;31.50;43.70;;;;;;4955693;29;20495;-47
2021/08/16 04:25:04;;;;;;;5.72;2.25;;;31.50;43.70;;;;;;4956246;29;20027;-48
2021/08/16 04:27:30;;;;;;;3.65;1.90;;;31.50;44.30;;;;;;4955889;29;20039;-45
2021/08/16 04:29:56;;;;;;;5.28;2.40;;;31.50;43.70;;;;;;4956362;29;20114;-50
2021/08/16 04:32:21;;;;;;;3.28;2.00;;;31.50;43.70;;;;;;4954374;29;20516;-49
2021/08/16 04:34:47;;;;;;;4.88;2.35;;;31.50;43.70;;;;;;4954900;29;20032;-47
2021/08/16 04:37:13;;;;;;;3.75;2.08;;;31.50;43.70;;;;;;4954646;29;20031;-46
2021/08/16 04:39:38;;;;;;;4.35;2.40;;;31.50;43.80;;;;;;4955584;29;20059;-46
2021/08/16 04:42:04;;;;;;;4.88;2.30;;;31.50;43.70;;;;;;4955653;29;20396;-52
2021/08/16 04:44:30;;;;;;;4.07;2.28;;;31.50;43.60;;;;;;4955376;29;20039;-46
2021/08/16 04:46:55;;;;;;;4.20;2.42;;;31.50;43.60;;;;;;4955448;29;20042;-46
2021/08/16 04:49:21;;;;;;;4.35;2.33;;;31.50;43.60;;;;;;4955135;29;20534;-49
2021/08/16 04:51:46;;;;;;;6.57;2.35;;;31.50;44.20;;;;;;4955714;29;20091;-46
2021/08/16 04:54:12;;;;;;;4.63;2.42;;;31.50;43.60;;;;;;4955095;29;20528;-49
2021/08/16 04:56:38;;;;;;;5.95;2.70;;;31.50;43.60;;;;;;4954862;29;20393;-51
2021/08/16 04:59:04;;;;;;;4.45;2.33;;;31.50;43.50;;;;;;4954367;29;20027;-42
2021/08/16 05:01:30;;;;;;;4.80;2.60;;;31.40;43.40;;;;;;4953792;29;20031;-45
2021/08/16 05:03:56;;;;;;;4.18;2.10;;;31.50;43.50;;;;;;4954044;29;20027;-50
2021/08/16 05:06:29;;;;;;;6.25;2.42;;;31.50;44.30;;;;;;4953653;29;20129;-48
2021/08/16 05:09:02;;;;;;;6.83;2.87;;;31.50;43.60;;;;;;4954216;29;20143;-48
2021/08/16 05:11:28;;;;;;;;;;;31.50;43.50;;;;;;4954127;29;20617;-47
2021/08/16 05:13:54;;;;;;;3.67;2.35;;;31.50;43.50;;;;;;4955011;29;19921;-45
2021/08/16 05:16:20;;;;;;;6.07;2.38;;;31.50;43.40;;;;;;4954798;29;20392;-49
2021/08/16 05:18:46;;;;;;;4.88;2.47;;;31.50;43.50;;;;;;4955426;29;20027;-46
2021/08/16 05:21:12;;;;;;;4.63;2.28;;;31.50;43.60;;;;;;4954955;29;20421;-46
2021/08/16 05:23:37;;;;;;;11.50;2.53;;;31.50;43.60;;;;;;4954265;29;20066;-47
2021/08/16 05:26:03;;;;;;;7.13;2.60;;;31.50;43.60;;;;;;4953752;29;20027;-46
2021/08/16 05:28:29;;;;;;;5.43;2.63;;;31.50;43.60;;;;;;4953132;29;20035;-50
2021/08/16 05:30:55;;;;;;;4.53;2.45;;;31.50;43.60;;;;;;4937122;29;20468;-44
2021/08/16 05:33:21;;;;;;;7.93;2.53;;;31.50;43.60;;;;;;4954232;29;20487;-50
2021/08/16 05:35:47;;;;;;;6.43;3.00;;;31.50;42.90;;;;;;4954954;29;20137;-48
2021/08/16 05:38:13;;;;;;;11.40;3.67;;;31.40;42.20;;;;;;4954987;29;20526;-50
2021/08/16 05:40:39;;;;;;;9.38;3.08;;;31.40;41.80;;;;;;4954056;29;20110;-46
2021/08/16 05:43:23;;;;;;;6.97;3.05;;;31.40;41.30;;;;;;4954760;29;20027;-45
2021/08/16 05:45:49;;;;;;;9.43;2.53;;;31.30;41.00;;;;;;4954794;29;20452;-43
2021/08/16 05:48:17;;;;;;;6.72;2.85;;;31.20;40.90;;;;;;4952830;29;20142;-45
2021/08/16 05:50:44;;;;;;;7.35;2.90;;;31.10;40.90;;;;;;4953934;29;20039;-49
2021/08/16 05:53:10;;;;;;;8.77;3.13;;;31.00;40.90;;;;;;4954001;29;20130;-48
2021/08/16 05:55:36;;;;;;;9.02;2.90;;;30.90;41.00;;;;;;4952534;29;20089;-45
2021/08/16 05:58:02;;;;;;;9.85;3.05;;;30.90;41.00;;;;;;4953284;29;20468;-49
2021/08/16 06:00:27;;;;;;;8.32;3.65;;;30.80;41.20;;;;;;4954004;29;20031;-45
2021/08/16 06:02:53;;;;;;;11.63;3.58;;;30.70;41.20;;;;;;4954263;29;20365;-44
2021/08/16 06:05:19;;;;;;;9.77;3.63;;;30.70;41.30;;;;;;4953672;29;20104;-49
2021/08/16 06:07:45;;;;;;;9.35;3.38;;;30.70;41.50;;;;;;4952043;29;20027;-48
2021/08/16 06:10:11;;;;;;;9.73;3.10;;;30.60;41.30;;;;;;4953099;29;20034;-51
2021/08/16 06:12:37;;;;;;;5.70;3.05;;;30.60;41.40;;;;;;4936377;29;20178;-47
2021/08/16 06:15:03;;;;;;;13.90;3.40;;;30.50;41.40;;;;;;4954331;29;20114;-49
2021/08/16 06:17:29;;;;;;;10.90;3.50;;;30.50;41.40;;;;;;4953967;29;20031;-51
2021/08/16 06:19:55;;;;;;;13.52;3.50;;;30.50;41.40;;;;;;4953811;29;20422;-51
2021/08/16 06:22:21;;;;;;;7.22;3.30;;;30.40;41.50;;;;;;4953888;29;20496;-52
2021/08/16 06:24:46;;;;;;;14.10;3.90;;;30.50;41.70;;;;;;4952189;29;20123;-46
2021/08/16 06:27:14;;;;;;;8.57;3.40;;;30.40;41.70;;;;;;4953715;29;20046;-53
2021/08/16 06:29:40;;;;;;;12.00;3.63;;;30.40;41.80;;;;;;4952356;29;20129;-49
2021/08/16 06:32:06;;;;;;;10.52;3.55;;;30.40;41.90;;;;;;4952989;29;20118;-46
2021/08/16 06:34:32;;;;;;;10.75;4.10;;;30.40;42.00;;;;;;4952663;28;20039;-49
2021/08/16 06:36:58;;;;;;;10.38;3.97;;;30.40;42.10;;;;;;4953918;29;20031;-46
2021/08/16 06:39:26;;;;;;;9.48;3.97;;;30.40;42.10;;;;;;4952716;29;20034;-51
2021/08/16 06:41:54;;;;;;;7.97;3.60;;;30.40;42.00;;;;;;4953650;29;20035;-47
2021/08/16 06:44:22;;;;;;;7.35;3.05;;;30.40;42.10;;;;;;4953848;29;20027;-49
2021/08/16 06:46:48;;;;;;;9.50;3.65;;;30.40;42.00;;;;;;4952096;29;20023;-49
2021/08/16 06:49:14;;;;;;;11.55;3.55;;;30.40;42.10;;;;;;4954218;29;20101;-44
2021/08/16 06:51:41;;;;;;;7.90;3.22;;;30.40;42.10;;;;;;4953118;29;20031;-45
2021/08/16 06:54:09;;;;;;;9.07;3.88;;;30.40;42.20;;;;;;4953501;29;20508;-46
2021/08/16 06:56:35;;;;;;;8.75;3.83;;;30.30;42.40;;;;;;4952343;29;20111;-46
2021/08/16 06:59:01;;;;;;;7.90;3.60;;;30.40;42.50;;;;;;4953447;29;20030;-43
2021/08/16 07:01:28;;;;;;;13.00;4.20;;;30.40;42.50;;;;;;4951665;29;20047;-43
2021/08/16 07:03:56;;;;;;;10.13;3.30;;;30.40;42.50;;;;;;4952979;29;20035;-43
2021/08/16 07:06:22;;;;;;;10.68;3.95;;;30.40;42.60;;;;;;4935881;29;20027;-47
2021/08/16 07:08:49;;;;;;;11.20;4.05;;;30.40;42.70;;;;;;4953084;29;20275;-45
2021/08/16 07:11:15;;;;;;;11.60;5.03;;;30.40;42.70;;;;;;4953504;29;20051;-49
2021/08/16 07:13:40;;;;;;;12.50;4.30;;;30.50;42.80;;;;;;4952395;29;20063;-46
2021/08/16 07:16:06;;;;;;;13.48;4.95;;;30.50;42.90;;;;;;4951095;29;20118;-51
2021/08/16 07:18:35;;;;;;;18.75;4.68;;;30.50;43.00;;;;;;4952336;29;20431;-50
2021/08/16 07:21:05;;;;;;;14.95;4.85;;;30.60;43.10;;;;;;4953277;29;20035;-46
2021/08/16 07:23:31;;;;;;;12.95;4.78;;;30.60;43.20;;;;;;4950813;29;20487;-46
2021/08/16 07:25:59;;;;;;;13.43;4.57;;;30.70;43.40;;;;;;4952978;29;20036;-49
2021/08/16 07:28:31;;;;;;;10.63;4.38;;;30.80;43.40;;;;;;4951798;29;20049;-44
2021/08/16 07:30:58;;;;;;;12.93;4.80;;;30.70;43.30;;;;;;4951001;29;20094;-51
2021/08/16 07:33:24;;;;;;;11.25;4.57;;;30.90;43.40;;;;;;4952592;29;20031;-51
2021/08/16 07:35:50;;;;;;;13.77;4.78;;;30.90;43.40;;;;;;4951862;29;20057;-48
2021/08/16 07:38:17;;;;;;;14.82;5.03;;;30.90;43.30;;;;;;4952282;29;20410;-45
2021/08/16 07:40:43;;;;;;;12.27;4.43;;;31.00;43.30;;;;;;4951501;29;20062;-47
2021/08/16 07:43:09;;;;;;;21.90;13.55;;;31.00;43.20;;;;;;4952310;29;20457;-46
2021/08/16 07:45:36;;;;;;;19.58;13.05;;;31.10;43.20;;;;;;4951434;28;20378;-43
2021/08/16 07:48:03;;;;;;;21.30;9.73;;;31.10;43.20;;;;;;4955705;29;20118;-48
2021/08/16 07:50:30;;;;;;;14.02;8.70;;;31.20;43.30;;;;;;4938206;29;20027;-46
2021/08/16 07:52:56;;;;;;;17.77;8.68;;;31.20;43.40;;;;;;4953711;29;20062;-51
2021/08/16 07:55:21;;;;;;;20.05;9.45;;;31.20;43.50;;;;;;4954458;29;20035;-46
2021/08/16 07:57:47;;;;;;;14.90;7.72;;;31.30;43.50;;;;;;4954962;29;20028;-49
2021/08/16 08:00:13;;;;;;;12.40;6.80;;;31.30;43.50;;;;;;4938019;29;20034;-44
2021/08/16 08:02:57;;;;;;;12.75;6.68;;;31.30;43.50;;;;;;4955202;29;20038;-45
2021/08/16 08:05:25;;;;;;;14.77;6.60;;;31.30;43.50;;;;;;4954558;29;20027;-47
2021/08/16 08:07:51;;;;;;;10.75;5.55;;;31.30;43.40;;;;;;4956819;29;20281;-49
2021/08/16 08:10:20;;;;;;;11.15;6.07;;;31.40;43.50;;;;;;4955817;29;20023;-47
2021/08/16 08:12:47;;;;;;;11.15;6.22;;;31.40;43.60;;;;;;4954115;29;20523;-49
2021/08/16 08:15:14;;;;;;;10.02;5.60;;;31.40;43.60;;;;;;4953758;29;20039;-44
2021/08/16 08:17:40;;;;;;;11.05;6.22;;;31.40;43.60;;;;;;4953885;29;20259;-44
2021/08/16 08:20:07;;;;;;;10.77;5.80;;;31.40;43.60;;;;;;4954973;29;20512;-42
2021/08/16 08:22:34;;;;;;;12.15;5.53;;;31.40;43.60;;;;;;4952550;29;20033;-49
2021/08/16 08:25:00;;;;;;;11.98;5.60;;;31.40;43.60;;;;;;4955247;29;20031;-45
2021/08/16 08:27:25;;;;;;;9.10;4.93;;;31.50;44.30;;;;;;4953441;29;20031;-45
2021/08/16 08:29:51;;;;;;;13.80;5.55;;;31.50;43.60;;;;;;4954008;29;20090;-44
2021/08/16 08:32:17;;;;;;;10.98;5.50;;;31.50;43.70;;;;;;4955720;29;20476;-44
2021/08/16 08:34:43;;;;;;;12.82;6.00;;;31.50;43.70;;;;;;4953198;29;20412;-46
2021/08/16 08:37:15;;;;;;;14.57;5.45;;;31.50;43.70;;;;;;4954732;29;20392;-44
2021/08/16 08:39:43;;;;;;;12.23;5.45;;;31.50;43.70;;;;;;4954449;29;20335;-45
2021/08/16 08:42:11;;;;;;;10.55;4.80;;;31.50;43.80;;;;;;4953795;29;20031;-45
2021/08/16 08:44:38;;;;;;;10.25;5.03;;;31.50;44.50;;;;;;4954419;29;20023;-46
2021/08/16 08:47:04;;;;;;;17.33;5.38;;;31.60;43.90;;;;;;4953933;29;20078;-47
2021/08/16 08:49:46;;;;;;;13.40;5.18;;;31.60;43.80;;;;;;4953592;29;20023;-43
2021/08/16 08:52:14;;;;;;;10.95;5.03;;;31.50;44.00;;;;;;4952636;29;20051;-47
2021/08/16 08:54:39;;;;;;;13.38;5.13;;;31.60;44.00;;;;;;4953826;29;20118;-46
2021/08/16 08:57:08;;;;;;;11.23;5.05;;;31.60;44.10;;;;;;4952500;28;20111;-43
2021/08/16 08:59:34;;;;;;;9.80;4.75;;;31.60;44.30;;;;;;4953456;29;20358;-47
2021/08/16 09:02:02;;;;;;;13.65;5.35;;;31.60;44.30;;;;;;4953733;29;20535;-43
2021/08/16 09:04:28;;;;;;;7.65;4.35;;;31.60;44.30;;;;;;4953217;29;20039;-43
2021/08/16 09:06:54;;;;;;;12.32;4.90;;;31.70;44.40;;;;;;4954138;29;20035;-45
2021/08/16 09:09:20;;;;;;;9.10;4.95;;;31.70;44.50;;;;;;4952838;29;20038;-44
2021/08/16 09:11:51;;;;;;;10.77;5.00;;;31.60;44.50;;;;;;4953225;29;20035;-45
2021/08/16 09:14:18;;;;;;;13.77;5.00;;;31.60;44.60;;;;;;4952707;29;20035;-45
2021/08/16 09:17:03;;;;;;;13.70;4.80;;;31.60;44.70;;;;;;4952292;29;20066;-45
2021/08/16 09:19:29;;;;;;;14.63;4.70;;;31.60;44.70;;;;;;4953556;29;20032;-45
2021/08/16 09:22:06;;;;;;;10.02;4.78;;;31.60;44.80;;;;;;4953543;29;20031;-49
2021/08/16 09:24:36;;;;;;;11.43;5.10;;;31.50;44.70;;;;;;4953208;29;20031;-44
2021/08/16 09:27:07;;;;;;;14.98;5.15;;;31.60;44.70;;;;;;4954000;29;20037;-42
2021/08/16 09:29:33;;;;;;;8.35;4.78;;;31.60;44.80;;;;;;4952670;29;20035;-44
2021/08/16 09:32:03;;;;;;;10.80;5.30;;;31.60;44.80;;;;;;4953434;29;20027;-47
2021/08/16 09:34:47;;;;;;;10.65;5.05;;;31.60;44.80;;;;;;4952769;29;20038;-50
2021/08/16 09:37:27;;;;;;;10.35;5.25;;;31.60;44.90;;;;;;4952298;29;20501;-43
2021/08/16 09:40:06;;;;;;;9.55;5.03;;;31.60;44.90;;;;;;4949169;29;20445;-48
2021/08/16 09:42:53;;;;;;;20.85;5.78;;;31.60;44.90;;;;;;4951493;29;20114;-48
2021/08/16 09:45:30;;;;;;;11.50;5.45;;;31.50;45.30;;;;;;4952440;29;20299;-45
2021/08/16 09:48:00;;;;;;;15.00;5.75;;;31.50;45.40;;;;;;4953420;29;20035;-48
2021/08/16 09:50:36;;;;;;;12.57;5.93;;;31.60;45.60;;;;;;4952238;29;20027;-50
2021/08/16 09:53:16;;;;;;;18.80;5.82;;;31.50;45.80;;;;;;4952900;29;20047;-45
2021/08/16 09:55:44;;;;;;;15.43;5.22;;;31.50;45.90;;;;;;4952650;29;20039;-49
2021/08/16 09:58:13;;;;;;;15.77;5.72;;;31.60;45.80;;;;;;4953243;29;20082;-47
2021/08/16 10:00:40;;;;;;;13.48;5.95;;;31.70;45.90;;;;;;4952063;29;20054;-51
2021/08/16 10:03:08;;;;;;;10.75;6.28;;;31.60;46.00;;;;;;4952947;29;20062;-50
2021/08/16 10:05:38;;;;;;;17.27;6.50;;;31.70;46.00;;;;;;4952098;29;20034;-52
2021/08/16 10:08:09;;;;;;;15.95;5.90;;;31.70;45.80;;;;;;4952453;28;20158;-46
2021/08/16 10:10:36;;;;;;;18.30;6.10;;;31.70;45.80;;;;;;4951858;29;20388;-49
2021/08/16 10:13:04;;;;;;;16.02;6.93;;;31.80;46.00;;;;;;4951640;29;20038;-47
2021/08/16 10:15:45;;;;;;;17.33;6.35;;;31.70;46.00;;;;;;4951458;29;20042;-47
2021/08/16 10:18:16;;;;;;;18.70;6.10;;;31.70;46.20;;;;;;4950005;29;20097;-47
2021/08/16 10:20:45;;;;;;;15.30;6.53;;;31.80;46.10;;;;;;4934401;29;20087;-45
2021/08/16 10:23:24;;;;;;;17.85;6.65;;;31.80;46.30;;;;;;4935196;29;20028;-47
2021/08/16 10:25:55;;;;;;;15.18;6.32;;;31.80;46.20;;;;;;4952076;29;20496;-45
2021/08/16 10:28:26;;;;;;;14.15;6.40;;;31.70;46.50;;;;;;4950950;29;20024;-48
2021/08/16 10:30:54;;;;;;;20.10;6.93;;;31.80;46.40;;;;;;4950052;29;20129;-52
2021/08/16 10:33:21;;;;;;;15.88;6.50;;;31.90;46.40;;;;;;4950497;29;20031;-48
2021/08/16 10:35:47;;;;;;;20.52;7.05;;;31.90;46.50;;;;;;4951478;29;20487;-52
2021/08/16 10:38:15;;;;;;;15.25;7.90;;;31.90;46.60;;;;;;4950620;29;20019;-53
2021/08/16 10:40:50;;;;;;;16.23;8.40;;;31.90;46.70;;;;;;4952255;29;20110;-47
2021/08/16 10:43:15;;;;;;;20.48;7.63;;;31.90;46.40;;;;;;4951474;29;20448;-47
2021/08/16 10:45:44;;;;;;;20.10;7.80;;;32.00;46.50;;;;;;4951540;29;20039;-45
2021/08/16 10:48:10;;;;;;;16.95;7.28;;;31.90;47.40;;;;;;4952199;29;20110;-52
2021/08/16 10:50:36;;;;;;;17.58;6.95;;;31.90;46.90;;;;;;4951741;29;20038;-51
2021/08/16 10:53:05;;;;;;;13.82;6.63;;;31.90;46.80;;;;;;4952250;29;20075;-50
2021/08/16 10:55:36;;;;;;;13.80;6.50;;;31.90;46.70;;;;;;4951671;29;20035;-50
2021/08/16 10:58:09;;;;;;;15.63;6.80;;;31.90;46.70;;;;;;4950888;29;20031;-47
2021/08/16 11:00:37;;;;;;;15.73;5.85;;;31.90;46.70;;;;;;4951877;29;20019;-51
2021/08/16 11:03:03;;;;;;;11.32;5.72;;;31.80;46.60;;;;;;4951972;29;20027;-51
2021/08/16 11:05:35;;;;;;;11.13;5.28;;;31.90;46.30;;;;;;4951457;29;20031;-52
2021/08/16 11:08:04;;;;;;;14.05;6.03;;;31.90;46.40;;;;;;4951612;29;20030;-51
2021/08/16 11:10:48;;;;;;;13.20;6.03;;;31.90;46.30;;;;;;4951048;29;20115;-51
2021/08/16 11:13:17;;;;;;;14.35;5.95;;;31.90;46.30;;;;;;4934476;29;20024;-46
2021/08/16 11:15:43;;;;;;;10.80;5.65;;;31.90;46.10;;;;;;4950946;29;20495;-48
2021/08/16 11:18:20;;;;;;;14.45;5.43;;;32.10;46.10;;;;;;4951633;29;20347;-46
2021/08/16 11:20:59;;;;;;;15.68;5.53;;;32.10;45.90;;;;;;4954122;28;20039;-43
2021/08/16 11:23:26;;;;;;;13.07;6.10;;;32.10;45.90;;;;;;4954548;29;20117;-49
2021/08/16 11:25:56;;;;;;;12.40;5.60;;;32.20;45.80;;;;;;4955009;29;20038;-42
2021/08/16 11:28:25;;;;;;;14.50;6.35;;;32.20;45.70;;;;;;4954634;29;20436;-44
2021/08/16 11:31:06;;;;;;;13.13;6.32;;;32.20;45.70;;;;;;4955639;29;20122;-42
2021/08/16 11:33:33;;;;;;;10.70;5.75;;;32.20;45.70;;;;;;4938059;29;20138;-45
2021/08/16 11:36:17;;;;;;;11.57;6.22;;;32.20;45.60;;;;;;4955907;29;20440;-46
2021/08/16 11:38:52;;;;;;;11.25;5.68;;;32.20;45.80;;;;;;4955365;29;20066;-43
2021/08/16 11:41:17;;;;;;;11.10;5.70;;;32.20;45.70;;;;;;4954047;29;20023;-42
2021/08/16 11:43:43;;;;;;;14.15;5.00;;;32.20;45.70;;;;;;4953808;29;20019;-42
2021/08/16 11:46:18;;;;;;;8.60;5.95;;;32.20;45.70;;;;;;4938244;29;20314;-42
2021/08/16 11:48:53;;;;;;;10.65;5.43;;;32.20;45.80;;;;;;4953189;29;20066;-44
2021/08/16 11:51:20;;;;;;;9.70;5.75;;;32.20;45.80;;;;;;4955425;29;20019;-43
2021/08/16 11:53:48;;;;;;;10.02;5.53;;;32.30;46.40;;;;;;4952655;29;20054;-44
2021/08/16 11:56:14;;;;;;;10.48;5.72;;;32.20;45.80;;;;;;4954926;29;20086;-45
2021/08/16 11:58:43;;;;;;;9.15;5.97;;;32.20;45.80;;;;;;4954565;29;20044;-43
2021/08/16 12:01:10;;;;;;;12.18;5.95;;;32.20;46.50;;;;;;4937462;29;20467;-42
2021/08/16 12:03:37;;;;;;;11.70;6.10;;;32.20;45.80;;;;;;4936697;29;20058;-48
2021/08/16 12:06:04;;;;;;;10.45;5.68;;;32.20;45.80;;;;;;4954279;29;20031;-41
2021/08/16 12:08:32;;;;;;;9.65;5.80;;;32.20;45.80;;;;;;4952397;29;20046;-49
2021/08/16 12:11:00;;;;;;;10.70;5.97;;;32.20;45.80;;;;;;4953443;29;20031;-42
2021/08/16 12:13:27;;;;;;;11.27;6.25;;;32.30;45.90;;;;;;4954809;29;20078;-44
2021/08/16 12:15:53;;;;;;;11.20;6.22;;;32.30;46.00;;;;;;4953425;29;20043;-43
2021/08/16 12:18:29;;;;;;;12.68;5.75;;;32.20;45.90;;;;;;4948903;29;20378;-50
2021/08/16 12:20:56;;;;;;;13.85;6.63;;;32.20;46.20;;;;;;4948680;29;20032;-53
2021/08/16 12:23:24;;;;;;;13.82;6.63;;;32.20;46.00;;;;;;4952534;29;20114;-52
2021/08/16 12:25:50;;;;;;;18.75;6.80;;;32.20;46.20;;;;;;4952284;29;20031;-52
2021/08/16 12:28:16;;;;;;;12.90;6.80;;;32.20;46.30;;;;;;4954292;29;20069;-51
2021/08/16 12:30:42;;;;;;;18.05;6.10;;;32.10;46.50;;;;;;4953578;29;20031;-51
2021/08/16 12:33:13;;;;;;;13.70;6.60;;;32.10;46.40;;;;;;4953158;29;20082;-51
2021/08/16 12:35:40;;;;;;;13.95;6.32;;;32.10;46.40;;;;;;4936393;29;20473;-50
2021/08/16 12:38:06;;;;;;;15.77;6.30;;;32.20;46.50;;;;;;4953851;29;20053;-52
2021/08/16 12:40:33;;;;;;;15.73;6.93;;;32.20;46.50;;;;;;4952521;29;20122;-52
2021/08/16 12:43:05;;;;;;;16.13;7.35;;;32.20;46.60;;;;;;4954207;29;20110;-46
2021/08/16 12:45:32;;;;;;;12.18;6.93;;;32.10;46.60;;;;;;4953258;29;20507;-49